Time,TemperatureF,DewpointF,PressureIn,WindDirection,WindDirectionDegrees,WindSpeedMPH,WindSpeedGustMPH,Humidity,HourlyPrecipIn,Conditions,Clouds,dailyrainin,SoftwareType,DateUTC
2013-04-04 00:02:00,46.0,22.0,30.05,WNW,290,3.0,3.0,38,0.00,,,0.00,,2013-04-04 06:02:00,
2013-04-04 00:12:00,46.0,22.0,30.05,WNW,290,3.0,3.0,38,0.00,,,0.00,,2013-04-04 06:12:00,
2013-04-04 00:22:00,46.0,22.0,30.04,WSW,248,2.0,3.0,38,0.00,,,0.00,,2013-04-04 06:22:00,
2013-04-04 00:32:00,45.0,22.0,30.04,West,261,1.0,3.0,39,0.00,,,0.00,,2013-04-04 06:32:00,
2013-04-04 00:42:00,45.0,22.0,30.04,West,261,1.0,3.0,39,0.00,,,0.00,,2013-04-04 06:42:00,
2013-04-04 00:53:00,45.0,22.0,30.04,West,271,2.0,3.0,40,0.00,,,0.00,,2013-04-04 06:53:00,
2013-04-04 01:02:00,44.0,21.0,30.05,West,264,3.0,5.0,40,0.00,,,0.00,,2013-04-04 07:02:00,
2013-04-04 01:12:00,44.0,21.0,30.05,West,264,3.0,5.0,40,0.00,,,0.00,,2013-04-04 07:12:00,
2013-04-04 01:22:00,44.0,22.0,30.05,West,270,2.0,5.0,42,0.00,,,0.00,,2013-04-04 07:22:00,
2013-04-04 01:32:00,44.0,23.0,30.05,WNW,292,1.0,2.0,43,0.00,,,0.00,,2013-04-04 07:32:00,
2013-04-04 01:43:00,44.0,23.0,30.05,WNW,292,1.0,2.0,43,0.00,,,0.00,,2013-04-04 07:43:00,
2013-04-04 01:53:00,43.0,24.0,30.05,WNW,303,2.0,3.0,47,0.00,,,0.00,,2013-04-04 07:53:00,
2013-04-04 02:02:00,43.0,24.0,30.05,WNW,283,2.0,3.0,46,0.00,,,0.00,,2013-04-04 08:02:00,
2013-04-04 02:12:00,43.0,24.0,30.05,WNW,283,2.0,3.0,46,0.00,,,0.00,,2013-04-04 08:12:00,
2013-04-04 02:22:00,42.0,23.0,30.05,NW,308,2.0,2.0,47,0.00,,,0.00,,2013-04-04 08:22:00,
2013-04-04 02:32:00,42.0,24.0,30.05,West,270,2.0,3.0,48,0.00,,,0.00,,2013-04-04 08:32:00,
2013-04-04 02:43:00,42.0,24.0,30.05,West,270,2.0,3.0,48,0.00,,,0.00,,2013-04-04 08:43:00,
2013-04-04 02:52:00,41.0,23.0,30.05,West,270,2.0,2.0,49,0.00,,,0.00,,2013-04-04 08:52:00,
2013-04-04 03:02:00,41.0,23.0,30.06,West,270,1.0,3.0,49,0.00,,,0.00,,2013-04-04 09:02:00,
2013-04-04 03:12:00,41.0,23.0,30.06,West,270,1.0,3.0,49,0.00,,,0.00,,2013-04-04 09:12:00,
2013-04-04 03:22:00,40.0,23.0,30.06,West,270,1.0,2.0,50,0.00,,,0.00,,2013-04-04 09:22:00,
2013-04-04 03:33:00,40.0,24.0,30.06,WNW,292,2.0,2.0,52,0.00,,,0.00,,2013-04-04 09:33:00,
2013-04-04 03:43:00,40.0,24.0,30.06,WNW,292,2.0,2.0,52,0.00,,,0.00,,2013-04-04 09:43:00,
2013-04-04 03:54:00,40.0,24.0,30.05,WNW,292,2.0,2.0,53,0.00,,,0.00,,2013-04-04 09:54:00,
2013-04-04 04:04:00,40.0,24.0,30.06,West,279,2.0,2.0,53,0.00,,,0.00,,2013-04-04 10:04:00,
2013-04-04 04:12:00,40.0,24.0,30.06,West,279,2.0,2.0,53,0.00,,,0.00,,2013-04-04 10:12:00,
2013-04-04 04:23:00,40.0,26.0,30.06,NW,305,2.0,3.0,57,0.00,,,0.00,,2013-04-04 10:23:00,
2013-04-04 04:33:00,39.0,24.0,30.06,West,275,2.0,2.0,55,0.00,,,0.00,,2013-04-04 10:33:00,
2013-04-04 04:42:00,39.0,24.0,30.06,West,275,2.0,2.0,55,0.00,,,0.00,,2013-04-04 10:42:00,
2013-04-04 04:54:00,39.0,24.0,30.06,West,270,2.0,3.0,54,0.00,,,0.00,,2013-04-04 10:54:00,
2013-04-04 05:02:00,38.0,23.0,30.07,West,262,2.0,3.0,55,0.00,,,0.00,,2013-04-04 11:02:00,
2013-04-04 05:12:00,38.0,23.0,30.07,West,262,2.0,3.0,55,0.00,,,0.00,,2013-04-04 11:12:00,
2013-04-04 05:22:00,38.0,23.0,30.07,WNW,297,0.0,1.0,54,0.00,,,0.00,,2013-04-04 11:22:00,
2013-04-04 05:32:00,37.0,22.0,30.07,WNW,292,0.0,1.0,54,0.00,,,0.00,,2013-04-04 11:32:00,
2013-04-04 05:42:00,37.0,22.0,30.07,WNW,292,0.0,1.0,54,0.00,,,0.00,,2013-04-04 11:42:00,
2013-04-04 05:54:00,36.0,21.0,30.08,WSW,248,1.0,1.0,53,0.00,,,0.00,,2013-04-04 11:54:00,
2013-04-04 06:02:00,36.0,21.0,30.08,WSW,248,0.0,2.0,53,0.00,,,0.00,,2013-04-04 12:02:00,
2013-04-04 06:12:00,36.0,21.0,30.08,WSW,248,0.0,2.0,53,0.00,,,0.00,,2013-04-04 12:12:00,
2013-04-04 06:22:00,36.0,21.0,30.09,WSW,255,2.0,2.0,54,0.00,,,0.00,,2013-04-04 12:22:00,
2013-04-04 06:32:00,36.0,22.0,30.09,NW,311,1.0,3.0,56,0.00,,,0.00,,2013-04-04 12:32:00,
2013-04-04 06:43:00,36.0,22.0,30.09,NW,311,1.0,3.0,56,0.00,,,0.00,,2013-04-04 12:43:00,
2013-04-04 06:52:00,37.0,22.0,30.10,West,270,1.0,1.0,54,0.00,,,0.00,,2013-04-04 12:52:00,
2013-04-04 07:02:00,36.0,21.0,30.10,WSW,248,2.0,2.0,54,0.00,,,0.00,,2013-04-04 13:02:00,
2013-04-04 07:12:00,36.0,21.0,30.10,WSW,248,2.0,2.0,54,0.00,,,0.00,,2013-04-04 13:12:00,
2013-04-04 07:22:00,37.0,22.0,30.10,West,261,2.0,2.0,55,0.00,,,0.00,,2013-04-04 13:22:00,
2013-04-04 07:32:00,38.0,23.0,30.11,WNW,286,2.0,2.0,54,0.00,,,0.00,,2013-04-04 13:32:00,
2013-04-04 07:42:00,38.0,23.0,30.11,WNW,286,2.0,2.0,54,0.00,,,0.00,,2013-04-04 13:42:00,
2013-04-04 07:53:00,45.0,25.0,30.11,WNW,292,2.0,2.0,46,0.00,,,0.00,,2013-04-04 13:53:00,
2013-04-04 08:03:00,47.0,25.0,30.11,WNW,292,2.0,2.0,42,0.00,,,0.00,,2013-04-04 14:03:00,
2013-04-04 08:12:00,47.0,25.0,30.11,WNW,292,2.0,2.0,42,0.00,,,0.00,,2013-04-04 14:12:00,
2013-04-04 08:22:00,50.0,24.0,30.12,NW,304,2.0,3.0,36,0.00,,,0.00,,2013-04-04 14:22:00,
2013-04-04 08:32:00,50.0,25.0,30.12,North,349,2.0,5.0,37,0.00,,,0.00,,2013-04-04 14:32:00,
2013-04-04 08:42:00,50.0,25.0,30.12,North,349,2.0,5.0,37,0.00,,,0.00,,2013-04-04 14:42:00,
2013-04-04 08:53:00,51.0,26.0,30.12,North,357,2.0,2.0,38,0.00,,,0.00,,2013-04-04 14:53:00,
2013-04-04 09:02:00,52.0,28.0,30.12,North,356,2.0,3.0,39,0.00,,,0.00,,2013-04-04 15:02:00,
2013-04-04 09:12:00,52.0,28.0,30.12,North,356,2.0,3.0,39,0.00,,,0.00,,2013-04-04 15:12:00,
2013-04-04 09:23:00,54.0,30.0,30.13,NNW,348,1.0,5.0,39,0.00,,,0.00,,2013-04-04 15:23:00,
2013-04-04 09:33:00,55.0,30.0,30.13,North,352,1.0,5.0,38,0.00,,,0.00,,2013-04-04 15:33:00,
2013-04-04 09:43:00,55.0,30.0,30.13,North,352,1.0,5.0,38,0.00,,,0.00,,2013-04-04 15:43:00,
2013-04-04 09:54:00,56.0,28.0,30.13,NNE,23,1.0,7.0,34,0.00,,,0.00,,2013-04-04 15:54:00,
2013-04-04 10:03:00,57.0,28.0,30.13,NNE,14,2.0,5.0,33,0.00,,,0.00,,2013-04-04 16:03:00,
2013-04-04 10:12:00,57.0,28.0,30.13,NNE,14,2.0,5.0,33,0.00,,,0.00,,2013-04-04 16:12:00,
2013-04-04 10:24:00,59.0,27.0,30.13,NNE,32,4.0,6.0,29,0.00,,,0.00,,2013-04-04 16:24:00,
2013-04-04 10:32:00,60.0,27.0,30.13,ENE,77,3.0,5.0,28,0.00,,,0.00,,2013-04-04 16:32:00,
2013-04-04 10:42:00,60.0,27.0,30.13,ENE,77,3.0,5.0,28,0.00,,,0.00,,2013-04-04 16:42:00,
2013-04-04 10:53:00,61.0,27.0,30.13,SE,130,1.0,2.0,27,0.00,,,0.00,,2013-04-04 16:53:00,
2013-04-04 11:03:00,62.0,26.0,30.13,NE,55,3.0,6.0,25,0.00,,,0.00,,2013-04-04 17:03:00,
2013-04-04 11:13:00,62.0,26.0,30.13,NE,55,3.0,6.0,25,0.00,,,0.00,,2013-04-04 17:13:00,
2013-04-04 11:22:00,63.0,27.0,30.13,East,94,1.0,5.0,25,0.00,,,0.00,,2013-04-04 17:22:00,
2013-04-04 11:33:00,64.0,26.0,30.12,SE,125,1.0,5.0,24,0.00,,,0.00,,2013-04-04 17:33:00,
2013-04-04 11:42:00,64.0,26.0,30.12,SE,125,1.0,5.0,24,0.00,,,0.00,,2013-04-04 17:42:00,
2013-04-04 11:53:00,67.0,29.0,30.12,SE,125,4.0,9.0,24,0.00,,,0.00,,2013-04-04 17:53:00,
2013-04-04 12:02:00,67.0,29.0,30.12,ESE,119,4.0,6.0,24,0.00,,,0.00,,2013-04-04 18:02:00,
2013-04-04 12:12:00,67.0,29.0,30.12,ESE,119,4.0,6.0,24,0.00,,,0.00,,2013-04-04 18:12:00,
2013-04-04 12:23:00,67.0,28.0,30.11,SW,229,2.0,6.0,23,0.00,,,0.00,,2013-04-04 18:23:00,
2013-04-04 12:32:00,68.0,27.0,30.11,ESE,104,3.0,6.0,21,0.00,,,0.00,,2013-04-04 18:32:00,
2013-04-04 12:43:00,68.0,27.0,30.11,ESE,104,3.0,6.0,21,0.00,,,0.00,,2013-04-04 18:43:00,
2013-04-04 12:52:00,69.0,26.0,30.10,ESE,116,2.0,6.0,20,0.00,,,0.00,,2013-04-04 18:52:00,
2013-04-04 13:02:00,70.0,26.0,30.10,SW,226,2.0,7.0,19,0.00,,,0.00,,2013-04-04 19:02:00,
2013-04-04 13:12:00,70.0,26.0,30.10,SW,226,2.0,7.0,19,0.00,,,0.00,,2013-04-04 19:12:00,
2013-04-04 13:22:00,70.0,25.0,30.09,SSE,160,7.0,10.0,18,0.00,,,0.00,,2013-04-04 19:22:00,
2013-04-04 13:32:00,70.0,25.0,30.08,SE,129,5.0,10.0,18,0.00,,,0.00,,2013-04-04 19:32:00,
2013-04-04 13:42:00,70.0,25.0,30.08,SE,129,5.0,10.0,18,0.00,,,0.00,,2013-04-04 19:42:00,
2013-04-04 13:52:00,71.0,24.0,30.07,East,97,6.0,8.0,17,0.00,,,0.00,,2013-04-04 19:52:00,
2013-04-04 14:03:00,71.0,24.0,30.07,WNW,301,2.0,8.0,17,0.00,,,0.00,,2013-04-04 20:03:00,
2013-04-04 14:12:00,71.0,24.0,30.07,WNW,301,2.0,8.0,17,0.00,,,0.00,,2013-04-04 20:12:00,
2013-04-04 14:22:00,72.0,25.0,30.06,ESE,108,2.0,7.0,17,0.00,,,0.00,,2013-04-04 20:22:00,
2013-04-04 14:32:00,72.0,23.0,30.06,NW,326,4.0,6.0,16,0.00,,,0.00,,2013-04-04 20:32:00,
2013-04-04 14:42:00,72.0,23.0,30.06,NW,326,4.0,6.0,16,0.00,,,0.00,,2013-04-04 20:42:00,
2013-04-04 14:53:00,74.0,25.0,30.05,SSW,206,2.0,6.0,16,0.00,,,0.00,,2013-04-04 20:53:00,
2013-04-04 15:02:00,73.0,24.0,30.04,WSW,252,2.0,3.0,16,0.00,,,0.00,,2013-04-04 21:02:00,
2013-04-04 15:12:00,73.0,24.0,30.04,WSW,252,2.0,3.0,16,0.00,,,0.00,,2013-04-04 21:12:00,
2013-04-04 15:22:00,74.0,23.0,30.04,South,188,3.0,9.0,15,0.00,,,0.00,,2013-04-04 21:22:00,
2013-04-04 15:32:00,75.0,23.0,30.03,South,191,3.0,6.0,14,0.00,,,0.00,,2013-04-04 21:32:00,
2013-04-04 15:43:00,75.0,23.0,30.03,South,191,3.0,6.0,14,0.00,,,0.00,,2013-04-04 21:43:00,
2013-04-04 15:53:00,74.0,22.0,30.02,SE,127,3.0,5.0,14,0.00,,,0.00,,2013-04-04 21:53:00,
2013-04-04 16:03:00,74.0,18.0,30.02,South,178,4.0,9.0,12,0.00,,,0.00,,2013-04-04 22:03:00,
2013-04-04 16:12:00,74.0,18.0,30.02,South,178,4.0,9.0,12,0.00,,,0.00,,2013-04-04 22:12:00,
2013-04-04 16:23:00,75.0,21.0,30.01,WNW,293,3.0,5.0,13,0.00,,,0.00,,2013-04-04 22:23:00,
2013-04-04 16:33:00,75.0,19.0,30.01,WSW,242,6.0,9.0,12,0.00,,,0.00,,2013-04-04 22:33:00,
2013-04-04 16:42:00,75.0,19.0,30.01,WSW,242,6.0,9.0,12,0.00,,,0.00,,2013-04-04 22:42:00,
2013-04-04 16:53:00,74.0,20.0,30.01,WSW,244,5.0,8.0,13,0.00,,,0.00,,2013-04-04 22:53:00,
2013-04-04 17:02:00,74.0,20.0,30.01,NW,320,2.0,5.0,13,0.00,,,0.00,,2013-04-04 23:02:00,
2013-04-04 17:12:00,74.0,20.0,30.01,NW,320,2.0,5.0,13,0.00,,,0.00,,2013-04-04 23:12:00,
2013-04-04 17:22:00,74.0,20.0,30.01,SW,216,3.0,7.0,13,0.00,,,0.00,,2013-04-04 23:22:00,
2013-04-04 17:32:00,73.0,19.0,30.01,WSW,248,2.0,6.0,13,0.00,,,0.00,,2013-04-04 23:32:00,
2013-04-04 17:42:00,73.0,19.0,30.01,WSW,248,2.0,6.0,13,0.00,,,0.00,,2013-04-04 23:42:00,
2013-04-04 17:52:00,72.0,18.0,30.01,East,98,1.0,5.0,13,0.00,,,0.00,,2013-04-04 23:52:00,
2013-04-04 18:02:00,73.0,19.0,30.00,West,259,5.0,6.0,13,0.00,,,0.00,,2013-04-05 00:02:00,
2013-04-04 18:12:00,73.0,19.0,30.00,West,259,5.0,6.0,13,0.00,,,0.00,,2013-04-05 00:12:00,
2013-04-04 18:22:00,72.0,20.0,30.00,SW,234,1.0,2.0,14,0.00,,,0.00,,2013-04-05 00:22:00,
2013-04-04 18:32:00,71.0,19.0,30.00,SW,222,3.0,3.0,14,0.00,,,0.00,,2013-04-05 00:32:00,
2013-04-04 18:42:00,71.0,19.0,30.00,SW,222,3.0,3.0,14,0.00,,,0.00,,2013-04-05 00:42:00,
2013-04-04 18:52:00,71.0,21.0,30.00,SSW,203,1.0,3.0,15,0.00,,,0.00,,2013-04-05 00:52:00,
2013-04-04 19:02:00,70.0,20.0,29.99,SW,219,2.0,5.0,15,0.00,,,0.00,,2013-04-05 01:02:00,
2013-04-04 19:12:00,70.0,20.0,29.99,SW,219,2.0,5.0,15,0.00,,,0.00,,2013-04-05 01:12:00,
2013-04-04 19:22:00,68.0,19.0,29.99,South,187,2.0,5.0,15,0.00,,,0.00,,2013-04-05 01:22:00,
2013-04-04 19:32:00,68.0,19.0,29.99,South,187,2.0,5.0,15,0.00,,,0.00,,2013-04-05 01:32:00,
2013-04-04 19:42:00,68.0,19.0,29.99,South,187,2.0,5.0,15,0.00,,,0.00,,2013-04-05 01:42:00,
2013-04-04 19:53:00,65.0,18.0,29.99,South,184,2.0,3.0,16,0.00,,,0.00,,2013-04-05 01:53:00,
2013-04-04 20:03:00,64.0,17.0,29.99,South,178,3.0,5.0,16,0.00,,,0.00,,2013-04-05 02:03:00,
2013-04-04 20:12:00,64.0,17.0,29.99,South,178,3.0,5.0,16,0.00,,,0.00,,2013-04-05 02:12:00,
2013-04-04 20:22:00,63.0,18.0,29.99,SSW,201,1.0,5.0,17,0.00,,,0.00,,2013-04-05 02:22:00,
2013-04-04 20:32:00,62.0,17.0,30.00,SSW,211,1.0,2.0,17,0.00,,,0.00,,2013-04-05 02:32:00,
2013-04-04 20:42:00,62.0,17.0,30.00,SSW,211,1.0,2.0,17,0.00,,,0.00,,2013-04-05 02:42:00,
2013-04-04 20:52:00,62.0,17.0,30.01,SW,230,3.0,5.0,17,0.00,,,0.00,,2013-04-05 02:52:00,
2013-04-04 21:02:00,62.0,15.0,30.01,SSW,208,2.0,5.0,16,0.00,,,0.00,,2013-04-05 03:02:00,
2013-04-04 21:12:00,62.0,15.0,30.01,SSW,208,2.0,5.0,16,0.00,,,0.00,,2013-04-05 03:12:00,
2013-04-04 21:22:00,62.0,15.0,30.01,SSW,207,3.0,5.0,16,0.00,,,0.00,,2013-04-05 03:22:00,
2013-04-04 21:32:00,61.0,16.0,30.01,SW,228,3.0,5.0,17,0.00,,,0.00,,2013-04-05 03:32:00,
2013-04-04 21:43:00,61.0,16.0,30.01,SW,228,3.0,5.0,17,0.00,,,0.00,,2013-04-05 03:43:00,
2013-04-04 21:54:00,60.0,15.0,30.02,SW,219,4.0,7.0,17,0.00,,,0.00,,2013-04-05 03:54:00,
2013-04-04 22:02:00,61.0,16.0,30.03,SW,225,3.0,8.0,17,0.00,,,0.00,,2013-04-05 04:02:00,
2013-04-04 22:12:00,61.0,16.0,30.03,SW,225,3.0,8.0,17,0.00,,,0.00,,2013-04-05 04:12:00,
2013-04-04 22:22:00,61.0,16.0,30.03,SW,225,2.0,6.0,17,0.00,,,0.00,,2013-04-05 04:22:00,
2013-04-04 22:32:00,60.0,16.0,30.03,SW,225,2.0,3.0,18,0.00,,,0.00,,2013-04-05 04:32:00,
2013-04-04 22:42:00,60.0,16.0,30.03,SW,225,2.0,3.0,18,0.00,,,0.00,,2013-04-05 04:42:00,
2013-04-04 22:52:00,59.0,14.0,30.03,SW,225,1.0,1.0,17,0.00,,,0.00,,2013-04-05 04:52:00,
2013-04-04 23:02:00,58.0,13.0,30.03,SW,225,1.0,2.0,17,0.00,,,0.00,,2013-04-05 05:02:00,
2013-04-04 23:13:00,58.0,13.0,30.03,SW,225,1.0,2.0,17,0.00,,,0.00,,2013-04-05 05:13:00,
2013-04-04 23:22:00,56.0,13.0,30.03,NNW,338,1.0,1.0,18,0.00,,,0.00,,2013-04-05 05:22:00,
2013-04-04 23:32:00,54.0,11.0,30.03,NW,315,1.0,2.0,18,0.00,,,0.00,,2013-04-05 05:32:00,
2013-04-04 23:42:00,54.0,11.0,30.03,NW,315,1.0,2.0,18,0.00,,,0.00,,2013-04-05 05:42:00,
2013-04-04 23:52:00,51.0,11.0,30.03,NW,315,2.0,3.0,20,0.00,,,0.00,,2013-04-05 05:52:00,